sensor_id;sensor_type;location;lat;lon;timestamp;temperature;humidity
40589;DHT22;26297;49.450;6.640;2024-03-23T00:54:21;14.60;99.90
40589;DHT22;26297;49.450;6.640;2024-03-23T00:57:24;14.60;99.90
40589;DHT22;26297;49.450;6.640;2024-03-23T01:00:27;14.60;99.90
40589;DHT22;26297;49.450;6.640;2024-03-23T01:03:30;14.60;99.90
40589;DHT22;26297;49.450;6.640;2024-03-23T01:06:33;14.60;99.90
40589;DHT22;26297;49.450;6.640;2024-03-23T01:09:36;14.60;99.90
40589;DHT22;26297;49.450;6.640;2024-03-23T01:12:41;14.60;99.90
40589;DHT22;26297;49.450;6.640;2024-03-23T01:15:49;14.60;99.90
40589;DHT22;26297;49.450;6.640;2024-03-23T01:18:52;14.60;99.90
40589;DHT22;26297;49.450;6.640;2024-03-23T01:21:55;14.70;99.90
40589;DHT22;26297;49.450;6.640;2024-03-23T01:24:58;14.70;99.90
40589;DHT22;26297;49.450;6.640;2024-03-23T01:28:01;14.60;99.90
40589;DHT22;26297;49.450;6.640;2024-03-23T01:31:04;14.70;99.90
40589;DHT22;26297;49.450;6.640;2024-03-23T01:34:07;14.70;99.90
40589;DHT22;26297;49.450;6.640;2024-03-23T01:37:10;14.70;99.90
40589;DHT22;26297;49.450;6.640;2024-03-23T01:40:13;14.60;99.90
40589;DHT22;26297;49.450;6.640;2024-03-23T01:43:17;14.60;99.90
40589;DHT22;26297;49.450;6.640;2024-03-23T01:46:20;14.60;99.90
40589;DHT22;26297;49.450;6.640;2024-03-23T01:49:24;14.60;99.90
40589;DHT22;26297;49.450;6.640;2024-03-23T01:52:28;14.70;99.90
40589;DHT22;26297;49.450;6.640;2024-03-23T01:55:32;14.60;99.90
40589;DHT22;26297;49.450;6.640;2024-03-23T01:58:35;14.60;99.90
40589;DHT22;26297;49.450;6.640;2024-03-23T02:01:38;14.70;99.90
40589;DHT22;26297;49.450;6.640;2024-03-23T02:04:41;14.60;99.90
40589;DHT22;26297;49.450;6.640;2024-03-23T02:07:44;14.60;99.90
40589;DHT22;26297;49.450;6.640;2024-03-23T02:10:48;14.60;99.90
40589;DHT22;26297;49.450;6.640;2024-03-23T02:13:52;14.60;99.90
40589;DHT22;26297;49.450;6.640;2024-03-23T02:16:55;14.60;99.90
40589;DHT22;26297;49.450;6.640;2024-03-23T02:19:58;14.60;99.90
40589;DHT22;26297;49.450;6.640;2024-03-23T02:23:04;14.60;99.90
40589;DHT22;26297;49.450;6.640;2024-03-23T02:26:11;14.60;99.90
40589;DHT22;26297;49.450;6.640;2024-03-23T02:29:14;14.70;99.90
40589;DHT22;26297;49.450;6.640;2024-03-23T02:32:17;14.60;99.90
40589;DHT22;26297;49.450;6.640;2024-03-23T02:35:20;14.70;99.90
40589;DHT22;26297;49.450;6.640;2024-03-23T02:38:23;14.60;99.90
40589;DHT22;26297;49.450;6.640;2024-03-23T02:41:27;14.70;99.90
40589;DHT22;26297;49.450;6.640;2024-03-23T02:44:31;14.70;99.90
40589;DHT22;26297;49.450;6.640;2024-03-23T02:47:34;14.60;99.90
40589;DHT22;26297;49.450;6.640;2024-03-23T02:50:37;14.60;99.90
40589;DHT22;26297;49.450;6.640;2024-03-23T02:53:40;14.60;99.90
40589;DHT22;26297;49.450;6.640;2024-03-23T02:56:44;14.60;99.90
40589;DHT22;26297;49.450;6.640;2024-03-23T02:59:47;14.60;99.90
40589;DHT22;26297;49.450;6.640;2024-03-23T03:02:50;14.60;99.90
40589;DHT22;26297;49.450;6.640;2024-03-23T03:05:57;14.60;99.90
40589;DHT22;26297;49.450;6.640;2024-03-23T03:09:00;14.60;99.90
40589;DHT22;26297;49.450;6.640;2024-03-23T03:12:04;14.60;99.90
40589;DHT22;26297;49.450;6.640;2024-03-23T03:15:08;14.60;99.90
40589;DHT22;26297;49.450;6.640;2024-03-23T03:18:12;14.60;99.90
40589;DHT22;26297;49.450;6.640;2024-03-23T03:21:15;14.50;99.90
40589;DHT22;26297;49.450;6.640;2024-03-23T03:24:19;14.50;99.90
40589;DHT22;26297;49.450;6.640;2024-03-23T03:27:22;14.50;99.90
40589;DHT22;26297;49.450;6.640;2024-03-23T03:30:26;14.50;99.90
40589;DHT22;26297;49.450;6.640;2024-03-23T03:33:29;14.50;99.90
40589;DHT22;26297;49.450;6.640;2024-03-23T03:36:32;14.50;99.90
40589;DHT22;26297;49.450;6.640;2024-03-23T03:39:35;14.50;99.90
40589;DHT22;26297;49.450;6.640;2024-03-23T03:42:38;14.50;99.90
40589;DHT22;26297;49.450;6.640;2024-03-23T03:45:41;14.60;99.90
40589;DHT22;26297;49.450;6.640;2024-03-23T03:48:44;14.60;99.90
40589;DHT22;26297;49.450;6.640;2024-03-23T03:51:49;14.50;99.90
40589;DHT22;26297;49.450;6.640;2024-03-23T03:55:01;14.60;99.90
40589;DHT22;26297;49.450;6.640;2024-03-23T03:58:05;14.50;99.90
40589;DHT22;26297;49.450;6.640;2024-03-23T04:01:08;14.50;99.90
40589;DHT22;26297;49.450;6.640;2024-03-23T04:04:11;14.50;99.90
40589;DHT22;26297;49.450;6.640;2024-03-23T04:07:14;14.50;99.90
40589;DHT22;26297;49.450;6.640;2024-03-23T04:10:17;14.50;99.90
40589;DHT22;26297;49.450;6.640;2024-03-23T04:13:20;14.50;99.90
40589;DHT22;26297;49.450;6.640;2024-03-23T04:16:28;14.50;99.90
40589;DHT22;26297;49.450;6.640;2024-03-23T04:19:31;14.50;99.90
40589;DHT22;26297;49.450;6.640;2024-03-23T04:22:34;14.50;99.90
40589;DHT22;26297;49.450;6.640;2024-03-23T04:25:38;14.50;99.90
40589;DHT22;26297;49.450;6.640;2024-03-23T04:28:41;14.50;99.90
40589;DHT22;26297;49.450;6.640;2024-03-23T04:31:44;14.50;99.90
40589;DHT22;26297;49.450;6.640;2024-03-23T04:34:50;14.50;99.90
40589;DHT22;26297;49.450;6.640;2024-03-23T04:37:53;14.50;99.90
40589;DHT22;26297;49.450;6.640;2024-03-23T04:40:57;14.50;99.90
40589;DHT22;26297;49.450;6.640;2024-03-23T04:44:01;14.40;99.90
40589;DHT22;26297;49.450;6.640;2024-03-23T04:47:04;14.40;99.90
40589;DHT22;26297;49.450;6.640;2024-03-23T04:50:09;14.40;99.90
40589;DHT22;26297;49.450;6.640;2024-03-23T04:53:13;14.50;99.90
40589;DHT22;26297;49.450;6.640;2024-03-23T04:56:16;14.50;99.90
40589;DHT22;26297;49.450;6.640;2024-03-23T04:59:20;14.50;99.90
40589;DHT22;26297;49.450;6.640;2024-03-23T05:02:23;14.50;99.90
40589;DHT22;26297;49.450;6.640;2024-03-23T05:05:28;14.50;99.90
40589;DHT22;26297;49.450;6.640;2024-03-23T05:08:30;14.40;99.90
40589;DHT22;26297;49.450;6.640;2024-03-23T05:11:34;14.40;99.90
40589;DHT22;26297;49.450;6.640;2024-03-23T05:14:37;14.40;99.90
40589;DHT22;26297;49.450;6.640;2024-03-23T05:17:40;14.40;99.90
40589;DHT22;26297;49.450;6.640;2024-03-23T05:20:44;14.40;99.90
40589;DHT22;26297;49.450;6.640;2024-03-23T05:23:47;14.40;99.90
40589;DHT22;26297;49.450;6.640;2024-03-23T05:26:50;14.40;99.90
40589;DHT22;26297;49.450;6.640;2024-03-23T05:29:53;14.40;99.90
40589;DHT22;26297;49.450;6.640;2024-03-23T05:32:56;14.40;99.90
40589;DHT22;26297;49.450;6.640;2024-03-23T05:36:01;14.40;99.90
40589;DHT22;26297;49.450;6.640;2024-03-23T05:39:04;14.40;99.90
40589;DHT22;26297;49.450;6.640;2024-03-23T05:42:07;14.40;99.90
40589;DHT22;26297;49.450;6.640;2024-03-23T05:45:11;14.40;99.90
40589;DHT22;26297;49.450;6.640;2024-03-23T05:48:15;14.40;99.90
40589;DHT22;26297;49.450;6.640;2024-03-23T05:51:18;14.40;99.90
40589;DHT22;26297;49.450;6.640;2024-03-23T05:54:21;14.30;99.90
40589;DHT22;26297;49.450;6.640;2024-03-23T05:57:24;14.40;99.90
40589;DHT22;26297;49.450;6.640;2024-03-23T06:00:29;14.30;99.90
40589;DHT22;26297;49.450;6.640;2024-03-23T06:03:32;14.40;99.90
40589;DHT22;26297;49.450;6.640;2024-03-23T06:06:34;14.30;99.90
40589;DHT22;26297;49.450;6.640;2024-03-23T06:09:38;14.30;99.90
40589;DHT22;26297;49.450;6.640;2024-03-23T06:12:42;14.30;99.90
40589;DHT22;26297;49.450;6.640;2024-03-23T06:15:45;14.40;99.90
40589;DHT22;26297;49.450;6.640;2024-03-23T06:18:52;14.30;99.90
40589;DHT22;26297;49.450;6.640;2024-03-23T06:21:56;14.30;99.90
40589;DHT22;26297;49.450;6.640;2024-03-23T06:24:59;14.30;99.90
40589;DHT22;26297;49.450;6.640;2024-03-23T06:28:02;14.40;99.90
40589;DHT22;26297;49.450;6.640;2024-03-23T06:31:09;14.40;99.90
40589;DHT22;26297;49.450;6.640;2024-03-23T06:34:12;14.30;99.90
40589;DHT22;26297;49.450;6.640;2024-03-23T06:37:15;14.30;99.90
40589;DHT22;26297;49.450;6.640;2024-03-23T06:40:18;14.30;99.90
40589;DHT22;26297;49.450;6.640;2024-03-23T06:43:21;14.30;99.90
40589;DHT22;26297;49.450;6.640;2024-03-23T06:46:25;14.30;99.90
40589;DHT22;26297;49.450;6.640;2024-03-23T06:49:29;14.30;99.90
40589;DHT22;26297;49.450;6.640;2024-03-23T06:52:32;14.30;99.90
40589;DHT22;26297;49.450;6.640;2024-03-23T06:55:36;14.30;99.90
40589;DHT22;26297;49.450;6.640;2024-03-23T06:58:39;14.30;99.90
40589;DHT22;26297;49.450;6.640;2024-03-23T07:01:42;14.30;99.90
40589;DHT22;26297;49.450;6.640;2024-03-23T07:04:45;14.30;99.90
40589;DHT22;26297;49.450;6.640;2024-03-23T07:07:48;14.30;99.90
40589;DHT22;26297;49.450;6.640;2024-03-23T07:10:51;14.30;99.90
40589;DHT22;26297;49.450;6.640;2024-03-23T07:13:54;14.30;99.90
40589;DHT22;26297;49.450;6.640;2024-03-23T07:17:00;14.30;99.90
40589;DHT22;26297;49.450;6.640;2024-03-23T07:20:04;14.30;99.90
40589;DHT22;26297;49.450;6.640;2024-03-23T07:23:07;14.30;99.90
40589;DHT22;26297;49.450;6.640;2024-03-23T07:26:10;14.30;99.90
40589;DHT22;26297;49.450;6.640;2024-03-23T07:29:13;14.30;99.90
40589;DHT22;26297;49.450;6.640;2024-03-23T07:32:17;14.30;99.90
40589;DHT22;26297;49.450;6.640;2024-03-23T07:35:20;14.20;99.90
40589;DHT22;26297;49.450;6.640;2024-03-23T07:38:23;14.20;99.90
40589;DHT22;26297;49.450;6.640;2024-03-23T07:41:26;14.20;99.90
40589;DHT22;26297;49.450;6.640;2024-03-23T07:44:30;14.20;99.90
40589;DHT22;26297;49.450;6.640;2024-03-23T07:47:33;14.20;99.90
40589;DHT22;26297;49.450;6.640;2024-03-23T07:50:36;14.20;99.90
40589;DHT22;26297;49.450;6.640;2024-03-23T07:53:39;14.20;99.90
40589;DHT22;26297;49.450;6.640;2024-03-23T07:56:42;14.20;99.90
40589;DHT22;26297;49.450;6.640;2024-03-23T07:59:44;14.20;99.90
40589;DHT22;26297;49.450;6.640;2024-03-23T08:02:51;14.20;99.90
40589;DHT22;26297;49.450;6.640;2024-03-23T08:05:54;14.20;99.90
40589;DHT22;26297;49.450;6.640;2024-03-23T08:08:57;14.20;99.90
40589;DHT22;26297;49.450;6.640;2024-03-23T08:12:04;14.20;99.90
40589;DHT22;26297;49.450;6.640;2024-03-23T08:15:08;14.20;99.90
40589;DHT22;26297;49.450;6.640;2024-03-23T08:18:12;14.20;99.90
40589;DHT22;26297;49.450;6.640;2024-03-23T08:21:16;14.20;99.90
40589;DHT22;26297;49.450;6.640;2024-03-23T08:24:19;14.20;99.90
40589;DHT22;26297;49.450;6.640;2024-03-23T08:27:22;14.20;99.90
40589;DHT22;26297;49.450;6.640;2024-03-23T08:30:26;14.20;99.90
40589;DHT22;26297;49.450;6.640;2024-03-23T08:33:29;14.30;99.90
40589;DHT22;26297;49.450;6.640;2024-03-23T08:36:32;14.20;99.90
40589;DHT22;26297;49.450;6.640;2024-03-23T08:39:35;14.30;99.90
40589;DHT22;26297;49.450;6.640;2024-03-23T08:42:38;14.30;99.90
40589;DHT22;26297;49.450;6.640;2024-03-23T08:45:41;14.20;99.90
40589;DHT22;26297;49.450;6.640;2024-03-23T08:48:45;14.20;99.90
40589;DHT22;26297;49.450;6.640;2024-03-23T08:51:49;14.20;99.90
40589;DHT22;26297;49.450;6.640;2024-03-23T08:54:52;14.20;99.90
40589;DHT22;26297;49.450;6.640;2024-03-23T08:57:55;14.20;99.90
40589;DHT22;26297;49.450;6.640;2024-03-23T09:04:10;14.20;99.90
40589;DHT22;26297;49.450;6.640;2024-03-23T09:07:13;14.20;99.90
40589;DHT22;26297;49.450;6.640;2024-03-23T09:10:16;14.20;99.90
40589;DHT22;26297;49.450;6.640;2024-03-23T09:13:19;14.20;99.90
40589;DHT22;26297;49.450;6.640;2024-03-23T09:16:22;14.20;99.90
40589;DHT22;26297;49.450;6.640;2024-03-23T09:19:29;14.20;99.90
40589;DHT22;26297;49.450;6.640;2024-03-23T09:22:32;14.20;99.90
40589;DHT22;26297;49.450;6.640;2024-03-23T09:25:39;14.20;99.90
40589;DHT22;26297;49.450;6.640;2024-03-23T09:28:42;14.20;99.90
40589;DHT22;26297;49.450;6.640;2024-03-23T09:31:45;14.20;99.90
40589;DHT22;26297;49.450;6.640;2024-03-23T09:34:49;14.20;99.90
40589;DHT22;26297;49.450;6.640;2024-03-23T09:37:52;14.20;99.90
40589;DHT22;26297;49.450;6.640;2024-03-23T09:40:57;14.20;99.90
40589;DHT22;26297;49.450;6.640;2024-03-23T09:44:00;14.20;99.90
40589;DHT22;26297;49.450;6.640;2024-03-23T09:47:04;14.20;99.90
40589;DHT22;26297;49.450;6.640;2024-03-23T09:50:10;14.20;99.90
40589;DHT22;26297;49.450;6.640;2024-03-23T09:53:25;14.20;99.90
40589;DHT22;26297;49.450;6.640;2024-03-23T09:56:28;14.20;99.90
40589;DHT22;26297;49.450;6.640;2024-03-23T09:59:49;14.30;99.90
40589;DHT22;26297;49.450;6.640;2024-03-23T10:02:55;14.30;99.90
40589;DHT22;26297;49.450;6.640;2024-03-23T10:06:03;14.20;99.90
40589;DHT22;26297;49.450;6.640;2024-03-23T10:09:17;14.20;99.90
40589;DHT22;26297;49.450;6.640;2024-03-23T10:12:24;14.20;99.90
40589;DHT22;26297;49.450;6.640;2024-03-23T10:15:27;14.20;99.90
40589;DHT22;26297;49.450;6.640;2024-03-23T10:18:37;14.20;99.90
40589;DHT22;26297;49.450;6.640;2024-03-23T10:56:45;14.10;99.90
40589;DHT22;26297;49.450;6.640;2024-03-23T10:59:49;14.10;99.90
40589;DHT22;26297;49.450;6.640;2024-03-23T11:02:52;14.10;99.90
40589;DHT22;26297;49.450;6.640;2024-03-23T11:06:00;14.10;99.90
40589;DHT22;26297;49.450;6.640;2024-03-23T11:09:03;14.00;99.90
40589;DHT22;26297;49.450;6.640;2024-03-23T11:19:33;14.10;99.90
40589;DHT22;26297;49.450;6.640;2024-03-23T11:22:47;14.10;99.90
40589;DHT22;26297;49.450;6.640;2024-03-23T11:25:50;14.10;99.90
40589;DHT22;26297;49.450;6.640;2024-03-23T11:29:12;14.10;99.90
40589;DHT22;26297;49.450;6.640;2024-03-23T11:32:15;14.00;99.90
40589;DHT22;26297;49.450;6.640;2024-03-23T11:35:35;14.00;99.90
40589;DHT22;26297;49.450;6.640;2024-03-23T11:38:39;14.00;99.90
40589;DHT22;26297;49.450;6.640;2024-03-23T11:45:29;14.00;99.90
40589;DHT22;26297;49.450;6.640;2024-03-23T11:49:50;14.10;99.90
40589;DHT22;26297;49.450;6.640;2024-03-23T11:53:41;14.00;99.90
40589;DHT22;26297;49.450;6.640;2024-03-23T11:56:58;14.00;99.90
40589;DHT22;26297;49.450;6.640;2024-03-23T12:00:02;14.00;99.90
40589;DHT22;26297;49.450;6.640;2024-03-23T12:03:23;14.00;99.90
40589;DHT22;26297;49.450;6.640;2024-03-23T12:06:29;14.00;99.90
40589;DHT22;26297;49.450;6.640;2024-03-23T12:09:32;14.00;99.90
40589;DHT22;26297;49.450;6.640;2024-03-23T12:12:37;14.00;99.90
40589;DHT22;26297;49.450;6.640;2024-03-23T12:15:41;14.00;99.90
40589;DHT22;26297;49.450;6.640;2024-03-23T12:18:45;14.00;99.90
40589;DHT22;26297;49.450;6.640;2024-03-23T12:21:49;14.00;99.90
40589;DHT22;26297;49.450;6.640;2024-03-23T12:24:52;14.00;99.90
40589;DHT22;26297;49.450;6.640;2024-03-23T12:27:59;14.00;99.90
40589;DHT22;26297;49.450;6.640;2024-03-23T12:31:02;14.00;99.90
40589;DHT22;26297;49.450;6.640;2024-03-23T12:34:06;14.00;99.90
40589;DHT22;26297;49.450;6.640;2024-03-23T12:37:09;14.00;99.90
40589;DHT22;26297;49.450;6.640;2024-03-23T12:40:12;13.90;99.90
40589;DHT22;26297;49.450;6.640;2024-03-23T12:43:16;13.90;99.90
40589;DHT22;26297;49.450;6.640;2024-03-23T12:46:19;13.90;99.90
40589;DHT22;26297;49.450;6.640;2024-03-23T12:49:22;14.00;99.90
40589;DHT22;26297;49.450;6.640;2024-03-23T12:52:25;13.90;99.90
40589;DHT22;26297;49.450;6.640;2024-03-23T12:55:31;14.00;99.90
40589;DHT22;26297;49.450;6.640;2024-03-23T12:58:34;14.00;99.90
40589;DHT22;26297;49.450;6.640;2024-03-23T13:01:37;14.00;99.90
40589;DHT22;26297;49.450;6.640;2024-03-23T13:04:40;14.00;99.90
40589;DHT22;26297;49.450;6.640;2024-03-23T13:07:43;14.00;99.90
40589;DHT22;26297;49.450;6.640;2024-03-23T13:10:46;14.00;99.90
40589;DHT22;26297;49.450;6.640;2024-03-23T13:13:49;14.00;99.90
40589;DHT22;26297;49.450;6.640;2024-03-23T13:16:53;14.00;99.90
40589;DHT22;26297;49.450;6.640;2024-03-23T13:20:04;14.10;99.90
40589;DHT22;26297;49.450;6.640;2024-03-23T13:23:17;14.00;99.90
40589;DHT22;26297;49.450;6.640;2024-03-23T13:26:20;14.10;99.90
40589;DHT22;26297;49.450;6.640;2024-03-23T13:29:24;14.10;99.90
40589;DHT22;26297;49.450;6.640;2024-03-23T13:32:27;14.10;99.90
40589;DHT22;26297;49.450;6.640;2024-03-23T13:35:31;14.10;99.90
40589;DHT22;26297;49.450;6.640;2024-03-23T13:38:37;14.10;99.90
40589;DHT22;26297;49.450;6.640;2024-03-23T13:41:42;14.20;99.90
40589;DHT22;26297;49.450;6.640;2024-03-23T13:44:46;14.10;99.90
40589;DHT22;26297;49.450;6.640;2024-03-23T13:47:49;14.20;99.90
40589;DHT22;26297;49.450;6.640;2024-03-23T13:51:03;14.10;99.90
40589;DHT22;26297;49.450;6.640;2024-03-23T13:54:06;14.20;99.90
40589;DHT22;26297;49.450;6.640;2024-03-23T13:57:09;14.20;99.90
40589;DHT22;26297;49.450;6.640;2024-03-23T14:00:14;14.20;99.90
40589;DHT22;26297;49.450;6.640;2024-03-23T14:03:18;14.20;99.90
40589;DHT22;26297;49.450;6.640;2024-03-23T14:06:21;14.20;99.90
40589;DHT22;26297;49.450;6.640;2024-03-23T14:09:24;14.20;99.90
40589;DHT22;26297;49.450;6.640;2024-03-23T14:12:28;14.20;99.90
40589;DHT22;26297;49.450;6.640;2024-03-23T14:15:31;14.20;99.90
40589;DHT22;26297;49.450;6.640;2024-03-23T14:18:35;14.20;99.90
40589;DHT22;26297;49.450;6.640;2024-03-23T14:21:41;14.20;99.90
40589;DHT22;26297;49.450;6.640;2024-03-23T14:24:44;14.20;99.90
40589;DHT22;26297;49.450;6.640;2024-03-23T14:27:48;14.20;99.90
40589;DHT22;26297;49.450;6.640;2024-03-23T14:30:55;14.10;99.90
40589;DHT22;26297;49.450;6.640;2024-03-23T14:33:59;14.10;99.90
40589;DHT22;26297;49.450;6.640;2024-03-23T14:37:02;14.10;99.90
40589;DHT22;26297;49.450;6.640;2024-03-23T14:40:06;14.20;99.90
40589;DHT22;26297;49.450;6.640;2024-03-23T14:43:10;14.10;99.90
40589;DHT22;26297;49.450;6.640;2024-03-23T14:46:15;14.00;99.90
40589;DHT22;26297;49.450;6.640;2024-03-23T14:49:24;14.00;99.90
40589;DHT22;26297;49.450;6.640;2024-03-23T14:52:29;14.00;99.90
40589;DHT22;26297;49.450;6.640;2024-03-23T14:55:34;14.00;99.90
40589;DHT22;26297;49.450;6.640;2024-03-23T14:58:38;14.00;99.90
40589;DHT22;26297;49.450;6.640;2024-03-23T15:01:46;13.90;99.90
40589;DHT22;26297;49.450;6.640;2024-03-23T15:04:49;13.90;99.90
40589;DHT22;26297;49.450;6.640;2024-03-23T15:07:53;13.90;99.90
40589;DHT22;26297;49.450;6.640;2024-03-23T15:11:01;13.90;99.90
40589;DHT22;26297;49.450;6.640;2024-03-23T15:14:10;14.00;99.90
40589;DHT22;26297;49.450;6.640;2024-03-23T15:17:14;13.90;99.90
40589;DHT22;26297;49.450;6.640;2024-03-23T15:20:18;13.90;99.90
40589;DHT22;26297;49.450;6.640;2024-03-23T15:23:21;13.90;99.90
40589;DHT22;26297;49.450;6.640;2024-03-23T15:26:25;13.90;99.90
40589;DHT22;26297;49.450;6.640;2024-03-23T15:29:28;13.90;99.90
40589;DHT22;26297;49.450;6.640;2024-03-23T15:32:31;13.90;99.90
40589;DHT22;26297;49.450;6.640;2024-03-23T15:35:34;14.00;99.90
40589;DHT22;26297;49.450;6.640;2024-03-23T15:38:37;13.90;99.90
40589;DHT22;26297;49.450;6.640;2024-03-23T15:41:41;13.90;99.90
40589;DHT22;26297;49.450;6.640;2024-03-23T15:44:46;13.90;99.90
40589;DHT22;26297;49.450;6.640;2024-03-23T15:47:49;13.90;99.90
40589;DHT22;26297;49.450;6.640;2024-03-23T15:51:01;13.90;99.90
40589;DHT22;26297;49.450;6.640;2024-03-23T15:54:06;14.00;99.90
40589;DHT22;26297;49.450;6.640;2024-03-23T15:57:09;14.00;99.90
40589;DHT22;26297;49.450;6.640;2024-03-23T16:00:13;14.00;99.90
40589;DHT22;26297;49.450;6.640;2024-03-23T16:03:16;14.00;99.90
40589;DHT22;26297;49.450;6.640;2024-03-23T16:06:19;14.00;99.90
40589;DHT22;26297;49.450;6.640;2024-03-23T16:09:26;14.00;99.90
40589;DHT22;26297;49.450;6.640;2024-03-23T16:12:31;14.00;99.90
40589;DHT22;26297;49.450;6.640;2024-03-23T16:15:34;13.90;99.90
40589;DHT22;26297;49.450;6.640;2024-03-23T16:18:38;13.90;99.90
40589;DHT22;26297;49.450;6.640;2024-03-23T16:21:46;13.90;99.90
40589;DHT22;26297;49.450;6.640;2024-03-23T16:24:49;14.00;99.90
40589;DHT22;26297;49.450;6.640;2024-03-23T16:27:53;13.90;99.90
40589;DHT22;26297;49.450;6.640;2024-03-23T16:31:09;14.00;99.90
40589;DHT22;26297;49.450;6.640;2024-03-23T16:34:13;13.90;99.90
40589;DHT22;26297;49.450;6.640;2024-03-23T16:37:15;14.00;99.90
40589;DHT22;26297;49.450;6.640;2024-03-23T16:40:19;13.90;99.90
40589;DHT22;26297;49.450;6.640;2024-03-23T16:43:22;13.90;99.90
40589;DHT22;26297;49.450;6.640;2024-03-23T16:46:26;13.90;99.90
40589;DHT22;26297;49.450;6.640;2024-03-23T16:49:29;13.90;99.90
40589;DHT22;26297;49.450;6.640;2024-03-23T16:52:34;14.00;99.90
40589;DHT22;26297;49.450;6.640;2024-03-23T16:55:39;14.00;99.90
40589;DHT22;26297;49.450;6.640;2024-03-23T16:58:42;14.00;99.90
40589;DHT22;26297;49.450;6.640;2024-03-23T17:01:45;14.00;99.90
40589;DHT22;26297;49.450;6.640;2024-03-23T17:04:48;14.00;99.90
40589;DHT22;26297;49.450;6.640;2024-03-23T17:07:51;14.00;99.90
40589;DHT22;26297;49.450;6.640;2024-03-23T17:11:00;14.00;99.90
40589;DHT22;26297;49.450;6.640;2024-03-23T17:14:04;14.00;99.90
40589;DHT22;26297;49.450;6.640;2024-03-23T17:17:06;14.00;99.90
40589;DHT22;26297;49.450;6.640;2024-03-23T17:20:10;14.00;99.90
40589;DHT22;26297;49.450;6.640;2024-03-23T17:23:26;13.90;99.90
40589;DHT22;26297;49.450;6.640;2024-03-23T17:26:29;14.00;99.90
40589;DHT22;26297;49.450;6.640;2024-03-23T17:29:32;13.90;99.90
40589;DHT22;26297;49.450;6.640;2024-03-23T17:32:35;13.90;99.90
40589;DHT22;26297;49.450;6.640;2024-03-23T17:35:38;13.90;99.90
40589;DHT22;26297;49.450;6.640;2024-03-23T17:38:41;13.90;99.90
40589;DHT22;26297;49.450;6.640;2024-03-23T17:41:44;13.90;99.90
40589;DHT22;26297;49.450;6.640;2024-03-23T17:44:51;13.90;99.90
40589;DHT22;26297;49.450;6.640;2024-03-23T17:47:55;13.90;99.90
40589;DHT22;26297;49.450;6.640;2024-03-23T17:51:03;13.90;99.90
40589;DHT22;26297;49.450;6.640;2024-03-23T17:54:06;13.90;99.90
40589;DHT22;26297;49.450;6.640;2024-03-23T17:57:10;13.90;99.90
40589;DHT22;26297;49.450;6.640;2024-03-23T18:00:13;13.90;99.90
40589;DHT22;26297;49.450;6.640;2024-03-23T18:03:18;13.90;99.90
40589;DHT22;26297;49.450;6.640;2024-03-23T18:06:21;13.90;99.90
40589;DHT22;26297;49.450;6.640;2024-03-23T18:09:24;13.90;99.90
40589;DHT22;26297;49.450;6.640;2024-03-23T18:12:28;13.90;99.90
40589;DHT22;26297;49.450;6.640;2024-03-23T18:15:31;14.00;99.90
40589;DHT22;26297;49.450;6.640;2024-03-23T18:18:34;13.90;99.90
40589;DHT22;26297;49.450;6.640;2024-03-23T18:21:37;13.90;99.90
40589;DHT22;26297;49.450;6.640;2024-03-23T18:24:40;13.90;99.90
40589;DHT22;26297;49.450;6.640;2024-03-23T18:27:44;13.90;99.90
40589;DHT22;26297;49.450;6.640;2024-03-23T18:30:58;13.90;99.90
40589;DHT22;26297;49.450;6.640;2024-03-23T18:34:02;13.90;99.90
40589;DHT22;26297;49.450;6.640;2024-03-23T18:37:06;13.90;99.90
40589;DHT22;26297;49.450;6.640;2024-03-23T18:40:09;13.90;99.90
40589;DHT22;26297;49.450;6.640;2024-03-23T18:43:13;13.90;99.90
40589;DHT22;26297;49.450;6.640;2024-03-23T18:46:17;13.90;99.90
40589;DHT22;26297;49.450;6.640;2024-03-23T18:49:20;13.90;99.90
40589;DHT22;26297;49.450;6.640;2024-03-23T18:52:23;13.90;99.90
40589;DHT22;26297;49.450;6.640;2024-03-23T18:55:26;13.90;99.90
40589;DHT22;26297;49.450;6.640;2024-03-23T18:58:30;13.90;99.90
40589;DHT22;26297;49.450;6.640;2024-03-23T19:01:33;13.90;99.90
40589;DHT22;26297;49.450;6.640;2024-03-23T19:04:37;13.90;99.90
40589;DHT22;26297;49.450;6.640;2024-03-23T19:07:40;13.90;99.90
40589;DHT22;26297;49.450;6.640;2024-03-23T19:10:51;13.90;99.90
40589;DHT22;26297;49.450;6.640;2024-03-23T19:13:55;13.90;99.90
40589;DHT22;26297;49.450;6.640;2024-03-23T19:16:58;13.90;99.90
40589;DHT22;26297;49.450;6.640;2024-03-23T19:20:01;13.90;99.90
40589;DHT22;26297;49.450;6.640;2024-03-23T19:23:07;13.90;99.90
40589;DHT22;26297;49.450;6.640;2024-03-23T19:26:11;13.90;99.90
40589;DHT22;26297;49.450;6.640;2024-03-23T19:29:14;13.90;99.90
40589;DHT22;26297;49.450;6.640;2024-03-23T19:32:17;13.90;99.90
40589;DHT22;26297;49.450;6.640;2024-03-23T19:35:20;13.90;99.90
40589;DHT22;26297;49.450;6.640;2024-03-23T19:38:23;13.90;99.90
40589;DHT22;26297;49.450;6.640;2024-03-23T19:41:26;13.90;99.90
40589;DHT22;26297;49.450;6.640;2024-03-23T19:44:29;13.90;99.90
40589;DHT22;26297;49.450;6.640;2024-03-23T19:47:32;13.90;99.90
40589;DHT22;26297;49.450;6.640;2024-03-23T19:50:35;13.90;99.90
40589;DHT22;26297;49.450;6.640;2024-03-23T19:53:39;13.90;99.90
40589;DHT22;26297;49.450;6.640;2024-03-23T19:56:42;13.90;99.90
40589;DHT22;26297;49.450;6.640;2024-03-23T19:59:45;13.90;99.90
40589;DHT22;26297;49.450;6.640;2024-03-23T20:03:12;13.90;99.90
40589;DHT22;26297;49.450;6.640;2024-03-23T20:06:15;13.90;99.90
40589;DHT22;26297;49.450;6.640;2024-03-23T20:09:55;13.80;99.90
40589;DHT22;26297;49.450;6.640;2024-03-23T20:13:21;13.80;99.90
40589;DHT22;26297;49.450;6.640;2024-03-23T20:16:27;13.90;99.90
40589;DHT22;26297;49.450;6.640;2024-03-23T20:19:30;13.90;99.90
40589;DHT22;26297;49.450;6.640;2024-03-23T20:22:35;13.90;99.90
40589;DHT22;26297;49.450;6.640;2024-03-23T20:25:38;13.90;99.90
40589;DHT22;26297;49.450;6.640;2024-03-23T20:28:41;13.90;99.90
40589;DHT22;26297;49.450;6.640;2024-03-23T20:31:44;13.90;99.90
40589;DHT22;26297;49.450;6.640;2024-03-23T20:34:47;13.90;99.90
40589;DHT22;26297;49.450;6.640;2024-03-23T20:37:51;13.90;99.90
40589;DHT22;26297;49.450;6.640;2024-03-23T20:40:56;13.90;99.90
40589;DHT22;26297;49.450;6.640;2024-03-23T20:44:01;13.90;99.90
40589;DHT22;26297;49.450;6.640;2024-03-23T20:47:05;13.90;99.90
40589;DHT22;26297;49.450;6.640;2024-03-23T20:50:31;13.90;99.90
40589;DHT22;26297;49.450;6.640;2024-03-23T20:59:05;13.80;99.90
40589;DHT22;26297;49.450;6.640;2024-03-23T21:02:40;13.80;99.90
40589;DHT22;26297;49.450;6.640;2024-03-23T21:06:02;13.80;99.90
40589;DHT22;26297;49.450;6.640;2024-03-23T21:09:09;13.80;99.90
40589;DHT22;26297;49.450;6.640;2024-03-23T21:12:12;13.80;99.90
40589;DHT22;26297;49.450;6.640;2024-03-23T21:15:16;13.80;99.90